sensor_id;sensor_type;location;lat;lon;timestamp;P1;durP1;ratioP1;P2;durP2;ratioP2
13238;SDS011;6686;51.292;4.166;2023-01-16T00:00:39;4.80;;;1.90;;
13238;SDS011;6686;51.292;4.166;2023-01-16T00:03:26;8.30;;;2.53;;
13238;SDS011;6686;51.292;4.166;2023-01-16T00:06:12;5.93;;;1.83;;
13238;SDS011;6686;51.292;4.166;2023-01-16T00:08:57;6.07;;;1.90;;
13238;SDS011;6686;51.292;4.166;2023-01-16T00:11:43;6.33;;;1.77;;
13238;SDS011;6686;51.292;4.166;2023-01-16T00:14:29;7.00;;;2.70;;
13238;SDS011;6686;51.292;4.166;2023-01-16T00:17:15;4.73;;;2.03;;
13238;SDS011;6686;51.292;4.166;2023-01-16T00:20:02;6.40;;;2.37;;
13238;SDS011;6686;51.292;4.166;2023-01-16T00:22:48;4.80;;;2.33;;
13238;SDS011;6686;51.292;4.166;2023-01-16T00:25:37;5.75;;;2.60;;
13238;SDS011;6686;51.292;4.166;2023-01-16T00:28:20;3.87;;;2.30;;
13238;SDS011;6686;51.292;4.166;2023-01-16T00:31:06;5.10;;;2.30;;
13238;SDS011;6686;51.292;4.166;2023-01-16T00:33:52;4.73;;;2.17;;
13238;SDS011;6686;51.292;4.166;2023-01-16T00:36:38;2.33;;;2.00;;
13238;SDS011;6686;51.292;4.166;2023-01-16T00:39:24;3.67;;;2.07;;
13238;SDS011;6686;51.292;4.166;2023-01-16T00:42:10;4.70;;;2.00;;
13238;SDS011;6686;51.292;4.166;2023-01-16T00:44:56;3.20;;;2.00;;
13238;SDS011;6686;51.292;4.166;2023-01-16T00:47:42;4.13;;;1.70;;
13238;SDS011;6686;51.292;4.166;2023-01-16T00:50:28;3.47;;;1.83;;
13238;SDS011;6686;51.292;4.166;2023-01-16T00:53:13;4.97;;;2.00;;
13238;SDS011;6686;51.292;4.166;2023-01-16T00:55:59;4.87;;;2.23;;
13238;SDS011;6686;51.292;4.166;2023-01-16T00:58:46;4.87;;;2.10;;
13238;SDS011;6686;51.292;4.166;2023-01-16T01:01:32;2.53;;;1.63;;
13238;SDS011;6686;51.292;4.166;2023-01-16T01:04:17;5.13;;;1.57;;
13238;SDS011;6686;51.292;4.166;2023-01-16T01:07:03;6.63;;;1.97;;
13238;SDS011;6686;51.292;4.166;2023-01-16T01:09:49;2.40;;;1.50;;
13238;SDS011;6686;51.292;4.166;2023-01-16T01:12:35;3.23;;;1.50;;
13238;SDS011;6686;51.292;4.166;2023-01-16T01:15:22;4.23;;;1.57;;
13238;SDS011;6686;51.292;4.166;2023-01-16T01:18:07;4.55;;;1.92;;
13238;SDS011;6686;51.292;4.166;2023-01-16T01:20:54;4.17;;;1.77;;
13238;SDS011;6686;51.292;4.166;2023-01-16T01:23:40;4.23;;;1.80;;
13238;SDS011;6686;51.292;4.166;2023-01-16T01:26:26;5.37;;;1.80;;
13238;SDS011;6686;51.292;4.166;2023-01-16T01:29:12;5.03;;;1.90;;
13238;SDS011;6686;51.292;4.166;2023-01-16T01:31:57;4.00;;;1.70;;
13238;SDS011;6686;51.292;4.166;2023-01-16T01:34:43;5.43;;;1.80;;
13238;SDS011;6686;51.292;4.166;2023-01-16T01:37:29;3.20;;;1.70;;
13238;SDS011;6686;51.292;4.166;2023-01-16T01:40:15;7.77;;;2.00;;
13238;SDS011;6686;51.292;4.166;2023-01-16T01:43:01;4.37;;;1.60;;
13238;SDS011;6686;51.292;4.166;2023-01-16T01:45:48;3.17;;;1.83;;
13238;SDS011;6686;51.292;4.166;2023-01-16T01:48:35;4.43;;;2.00;;
13238;SDS011;6686;51.292;4.166;2023-01-16T01:51:23;3.30;;;1.73;;
13238;SDS011;6686;51.292;4.166;2023-01-16T01:54:08;5.43;;;1.70;;
13238;SDS011;6686;51.292;4.166;2023-01-16T01:57:00;2.70;;;1.50;;
13238;SDS011;6686;51.292;4.166;2023-01-16T01:59:44;2.37;;;1.50;;
13238;SDS011;6686;51.292;4.166;2023-01-16T02:02:36;5.73;;;1.90;;
13238;SDS011;6686;51.292;4.166;2023-01-16T02:05:19;3.20;;;1.30;;
13238;SDS011;6686;51.292;4.166;2023-01-16T02:08:03;3.97;;;1.90;;
13238;SDS011;6686;51.292;4.166;2023-01-16T02:10:53;3.62;;;1.70;;
13238;SDS011;6686;51.292;4.166;2023-01-16T02:13:37;4.37;;;1.50;;
13238;SDS011;6686;51.292;4.166;2023-01-16T02:16:23;3.93;;;1.33;;
13238;SDS011;6686;51.292;4.166;2023-01-16T02:34:46;4.20;;;1.70;;
13238;SDS011;6686;51.292;4.166;2023-01-16T02:37:42;4.70;;;2.20;;
13238;SDS011;6686;51.292;4.166;2023-01-16T02:40:39;6.17;;;1.77;;
13238;SDS011;6686;51.292;4.166;2023-01-16T02:43:33;7.60;;;2.23;;
13238;SDS011;6686;51.292;4.166;2023-01-16T02:46:20;2.73;;;1.93;;
13238;SDS011;6686;51.292;4.166;2023-01-16T02:49:09;5.33;;;2.33;;
13238;SDS011;6686;51.292;4.166;2023-01-16T02:51:57;3.33;;;1.77;;
13238;SDS011;6686;51.292;4.166;2023-01-16T02:54:47;5.93;;;2.23;;
13238;SDS011;6686;51.292;4.166;2023-01-16T02:57:33;6.57;;;2.70;;
13238;SDS011;6686;51.292;4.166;2023-01-16T03:00:17;6.27;;;2.70;;
13238;SDS011;6686;51.292;4.166;2023-01-16T03:03:03;6.00;;;2.13;;
13238;SDS011;6686;51.292;4.166;2023-01-16T03:05:50;4.43;;;2.00;;
13238;SDS011;6686;51.292;4.166;2023-01-16T03:15:12;6.23;;;2.63;;
13238;SDS011;6686;51.292;4.166;2023-01-16T03:21:10;7.80;;;2.85;;
13238;SDS011;6686;51.292;4.166;2023-01-16T03:24:03;6.65;;;2.58;;
13238;SDS011;6686;51.292;4.166;2023-01-16T03:26:46;6.27;;;2.50;;
13238;SDS011;6686;51.292;4.166;2023-01-16T03:29:47;7.13;;;2.80;;
13238;SDS011;6686;51.292;4.166;2023-01-16T03:32:37;5.53;;;2.30;;
13238;SDS011;6686;51.292;4.166;2023-01-16T03:35:29;6.87;;;2.83;;
13238;SDS011;6686;51.292;4.166;2023-01-16T03:38:14;5.57;;;2.83;;
13238;SDS011;6686;51.292;4.166;2023-01-16T03:41:00;5.83;;;2.53;;
13238;SDS011;6686;51.292;4.166;2023-01-16T03:43:47;7.53;;;2.27;;
13238;SDS011;6686;51.292;4.166;2023-01-16T03:46:34;4.83;;;2.53;;
13238;SDS011;6686;51.292;4.166;2023-01-16T03:49:19;6.60;;;2.70;;
13238;SDS011;6686;51.292;4.166;2023-01-16T03:52:04;5.53;;;2.10;;
13238;SDS011;6686;51.292;4.166;2023-01-16T03:54:55;5.83;;;2.20;;
13238;SDS011;6686;51.292;4.166;2023-01-16T03:57:44;6.32;;;2.50;;
13238;SDS011;6686;51.292;4.166;2023-01-16T04:00:35;4.73;;;2.33;;
13238;SDS011;6686;51.292;4.166;2023-01-16T04:04:05;5.10;;;2.00;;
13238;SDS011;6686;51.292;4.166;2023-01-16T04:06:13;6.30;;;2.30;;
13238;SDS011;6686;51.292;4.166;2023-01-16T04:08:57;7.20;;;2.40;;
13238;SDS011;6686;51.292;4.166;2023-01-16T04:11:43;4.63;;;1.90;;
13238;SDS011;6686;51.292;4.166;2023-01-16T04:14:29;5.37;;;1.90;;
13238;SDS011;6686;51.292;4.166;2023-01-16T04:17:15;5.13;;;2.03;;
13238;SDS011;6686;51.292;4.166;2023-01-16T04:20:01;8.80;;;2.20;;
13238;SDS011;6686;51.292;4.166;2023-01-16T04:22:47;6.35;;;2.53;;
13238;SDS011;6686;51.292;4.166;2023-01-16T04:25:33;7.07;;;1.97;;
13238;SDS011;6686;51.292;4.166;2023-01-16T04:28:19;5.10;;;1.90;;
13238;SDS011;6686;51.292;4.166;2023-01-16T04:31:04;6.93;;;2.00;;
13238;SDS011;6686;51.292;4.166;2023-01-16T04:33:50;4.50;;;1.60;;
13238;SDS011;6686;51.292;4.166;2023-01-16T04:36:36;4.83;;;2.00;;
13238;SDS011;6686;51.292;4.166;2023-01-16T04:39:22;5.87;;;2.40;;
13238;SDS011;6686;51.292;4.166;2023-01-16T04:42:09;5.95;;;2.15;;
13238;SDS011;6686;51.292;4.166;2023-01-16T04:44:54;6.90;;;2.67;;
13238;SDS011;6686;51.292;4.166;2023-01-16T04:47:41;5.27;;;2.30;;
13238;SDS011;6686;51.292;4.166;2023-01-16T04:50:26;7.67;;;2.73;;
13238;SDS011;6686;51.292;4.166;2023-01-16T04:53:12;5.83;;;2.27;;
13238;SDS011;6686;51.292;4.166;2023-01-16T04:55:58;7.35;;;2.53;;
13238;SDS011;6686;51.292;4.166;2023-01-16T04:58:43;7.70;;;2.00;;
13238;SDS011;6686;51.292;4.166;2023-01-16T05:01:29;4.97;;;2.20;;
13238;SDS011;6686;51.292;4.166;2023-01-16T05:04:15;6.50;;;2.13;;
13238;SDS011;6686;51.292;4.166;2023-01-16T05:07:01;2.93;;;2.03;;
13238;SDS011;6686;51.292;4.166;2023-01-16T05:09:47;7.50;;;2.30;;
13238;SDS011;6686;51.292;4.166;2023-01-16T05:12:32;6.90;;;2.33;;
13238;SDS011;6686;51.292;4.166;2023-01-16T05:15:18;7.27;;;2.10;;
13238;SDS011;6686;51.292;4.166;2023-01-16T05:18:04;4.80;;;1.93;;
13238;SDS011;6686;51.292;4.166;2023-01-16T05:20:50;5.50;;;1.60;;
13238;SDS011;6686;51.292;4.166;2023-01-16T05:23:35;5.20;;;2.20;;
13238;SDS011;6686;51.292;4.166;2023-01-16T05:26:21;7.73;;;1.90;;
13238;SDS011;6686;51.292;4.166;2023-01-16T05:29:07;5.83;;;1.70;;
13238;SDS011;6686;51.292;4.166;2023-01-16T05:31:53;6.10;;;2.30;;
13238;SDS011;6686;51.292;4.166;2023-01-16T05:34:38;6.77;;;2.00;;
13238;SDS011;6686;51.292;4.166;2023-01-16T05:37:24;8.20;;;2.10;;
13238;SDS011;6686;51.292;4.166;2023-01-16T05:40:10;7.20;;;2.00;;
13238;SDS011;6686;51.292;4.166;2023-01-16T05:42:56;5.90;;;2.20;;
13238;SDS011;6686;51.292;4.166;2023-01-16T05:45:42;7.40;;;1.90;;
13238;SDS011;6686;51.292;4.166;2023-01-16T05:48:27;4.93;;;1.93;;
13238;SDS011;6686;51.292;4.166;2023-01-16T05:51:13;3.87;;;1.70;;
13238;SDS011;6686;51.292;4.166;2023-01-16T05:54:00;3.07;;;1.87;;
13238;SDS011;6686;51.292;4.166;2023-01-16T05:56:46;4.97;;;2.27;;
13238;SDS011;6686;51.292;4.166;2023-01-16T05:59:32;8.07;;;2.53;;
13238;SDS011;6686;51.292;4.166;2023-01-16T06:02:18;6.00;;;2.20;;
13238;SDS011;6686;51.292;4.166;2023-01-16T06:05:03;10.00;;;2.57;;
13238;SDS011;6686;51.292;4.166;2023-01-16T06:07:53;5.50;;;2.10;;
13238;SDS011;6686;51.292;4.166;2023-01-16T06:10:36;6.03;;;2.05;;
13238;SDS011;6686;51.292;4.166;2023-01-16T06:13:21;5.67;;;2.20;;
13238;SDS011;6686;51.292;4.166;2023-01-16T06:16:07;4.17;;;1.60;;
13238;SDS011;6686;51.292;4.166;2023-01-16T06:18:53;3.47;;;1.70;;
13238;SDS011;6686;51.292;4.166;2023-01-16T06:21:39;5.57;;;1.75;;
13238;SDS011;6686;51.292;4.166;2023-01-16T06:24:25;5.18;;;1.65;;
13238;SDS011;6686;51.292;4.166;2023-01-16T06:27:11;4.10;;;1.43;;
13238;SDS011;6686;51.292;4.166;2023-01-16T06:29:57;4.60;;;1.63;;
13238;SDS011;6686;51.292;4.166;2023-01-16T06:32:42;3.87;;;1.40;;
13238;SDS011;6686;51.292;4.166;2023-01-16T06:35:28;3.40;;;2.03;;
13238;SDS011;6686;51.292;4.166;2023-01-16T06:38:14;5.60;;;1.30;;
13238;SDS011;6686;51.292;4.166;2023-01-16T06:41:00;3.37;;;1.30;;
13238;SDS011;6686;51.292;4.166;2023-01-16T06:43:51;5.00;;;1.63;;
13238;SDS011;6686;51.292;4.166;2023-01-16T06:46:54;3.13;;;1.40;;
13238;SDS011;6686;51.292;4.166;2023-01-16T06:49:35;5.73;;;1.40;;
13238;SDS011;6686;51.292;4.166;2023-01-16T06:52:20;2.83;;;1.00;;
13238;SDS011;6686;51.292;4.166;2023-01-16T06:55:06;1.83;;;1.30;;
13238;SDS011;6686;51.292;4.166;2023-01-16T06:57:52;3.20;;;1.20;;
13238;SDS011;6686;51.292;4.166;2023-01-16T07:00:38;3.40;;;1.40;;
13238;SDS011;6686;51.292;4.166;2023-01-16T07:03:24;2.90;;;1.10;;
13238;SDS011;6686;51.292;4.166;2023-01-16T07:06:10;2.23;;;1.30;;
13238;SDS011;6686;51.292;4.166;2023-01-16T07:08:55;1.37;;;1.17;;
13238;SDS011;6686;51.292;4.166;2023-01-16T07:11:42;2.80;;;1.10;;
13238;SDS011;6686;51.292;4.166;2023-01-16T07:14:28;3.73;;;1.10;;
13238;SDS011;6686;51.292;4.166;2023-01-16T07:17:14;2.20;;;1.03;;
13238;SDS011;6686;51.292;4.166;2023-01-16T07:20:18;3.92;;;1.20;;
13238;SDS011;6686;51.292;4.166;2023-01-16T07:23:25;1.37;;;0.90;;
13238;SDS011;6686;51.292;4.166;2023-01-16T07:26:12;2.67;;;1.17;;
13238;SDS011;6686;51.292;4.166;2023-01-16T07:28:58;1.87;;;1.17;;
13238;SDS011;6686;51.292;4.166;2023-01-16T07:31:43;3.57;;;1.10;;
13238;SDS011;6686;51.292;4.166;2023-01-16T07:34:29;0.87;;;0.73;;
13238;SDS011;6686;51.292;4.166;2023-01-16T07:37:15;4.40;;;1.33;;
13238;SDS011;6686;51.292;4.166;2023-01-16T07:40:01;1.73;;;1.30;;
13238;SDS011;6686;51.292;4.166;2023-01-16T07:42:49;1.53;;;0.90;;
13238;SDS011;6686;51.292;4.166;2023-01-16T07:45:33;0.90;;;0.80;;
13238;SDS011;6686;51.292;4.166;2023-01-16T07:48:20;1.20;;;0.90;;
13238;SDS011;6686;51.292;4.166;2023-01-16T07:51:06;1.50;;;1.03;;
13238;SDS011;6686;51.292;4.166;2023-01-16T07:53:52;3.27;;;1.77;;
13238;SDS011;6686;51.292;4.166;2023-01-16T07:56:38;1.00;;;0.77;;
13238;SDS011;6686;51.292;4.166;2023-01-16T07:59:23;2.27;;;1.00;;
13238;SDS011;6686;51.292;4.166;2023-01-16T08:02:09;1.63;;;1.10;;
13238;SDS011;6686;51.292;4.166;2023-01-16T08:04:55;2.13;;;1.43;;
13238;SDS011;6686;51.292;4.166;2023-01-16T08:07:41;0.80;;;0.80;;
13238;SDS011;6686;51.292;4.166;2023-01-16T08:10:27;1.20;;;1.10;;
13238;SDS011;6686;51.292;4.166;2023-01-16T08:13:13;2.07;;;1.10;;
13238;SDS011;6686;51.292;4.166;2023-01-16T08:15:59;0.80;;;0.80;;
13238;SDS011;6686;51.292;4.166;2023-01-16T08:18:45;1.37;;;1.17;;
13238;SDS011;6686;51.292;4.166;2023-01-16T08:21:31;1.47;;;1.10;;
13238;SDS011;6686;51.292;4.166;2023-01-16T08:24:17;1.50;;;1.17;;
13238;SDS011;6686;51.292;4.166;2023-01-16T08:27:02;1.03;;;0.93;;
13238;SDS011;6686;51.292;4.166;2023-01-16T08:29:48;1.67;;;1.00;;
13238;SDS011;6686;51.292;4.166;2023-01-16T08:32:34;1.43;;;1.10;;
13238;SDS011;6686;51.292;4.166;2023-01-16T08:35:20;1.13;;;1.10;;
13238;SDS011;6686;51.292;4.166;2023-01-16T08:38:05;2.20;;;1.27;;
13238;SDS011;6686;51.292;4.166;2023-01-16T08:40:51;1.43;;;0.90;;
13238;SDS011;6686;51.292;4.166;2023-01-16T08:43:37;1.50;;;1.00;;
13238;SDS011;6686;51.292;4.166;2023-01-16T08:46:42;0.83;;;0.83;;
13238;SDS011;6686;51.292;4.166;2023-01-16T08:49:46;2.57;;;1.13;;
13238;SDS011;6686;51.292;4.166;2023-01-16T08:52:51;2.67;;;1.40;;
13238;SDS011;6686;51.292;4.166;2023-01-16T08:55:36;2.20;;;0.90;;
13238;SDS011;6686;51.292;4.166;2023-01-16T08:58:22;1.37;;;0.77;;
13238;SDS011;6686;51.292;4.166;2023-01-16T09:01:08;1.40;;;1.10;;
13238;SDS011;6686;51.292;4.166;2023-01-16T09:03:54;1.10;;;1.00;;
13238;SDS011;6686;51.292;4.166;2023-01-16T09:06:39;1.13;;;0.90;;
13238;SDS011;6686;51.292;4.166;2023-01-16T09:09:25;1.07;;;0.83;;
13238;SDS011;6686;51.292;4.166;2023-01-16T09:16:33;0.80;;;0.80;;
13238;SDS011;6686;51.292;4.166;2023-01-16T09:19:19;0.67;;;0.67;;
13238;SDS011;6686;51.292;4.166;2023-01-16T09:22:06;2.25;;;1.05;;
13238;SDS011;6686;51.292;4.166;2023-01-16T09:24:52;1.67;;;1.17;;
13238;SDS011;6686;51.292;4.166;2023-01-16T09:27:37;1.30;;;1.00;;
13238;SDS011;6686;51.292;4.166;2023-01-16T09:30:23;3.87;;;2.23;;
13238;SDS011;6686;51.292;4.166;2023-01-16T09:33:09;3.83;;;1.37;;
13238;SDS011;6686;51.292;4.166;2023-01-16T09:35:56;1.87;;;1.47;;
13238;SDS011;6686;51.292;4.166;2023-01-16T09:38:42;5.63;;;2.40;;
13238;SDS011;6686;51.292;4.166;2023-01-16T09:41:28;3.27;;;1.50;;
13238;SDS011;6686;51.292;4.166;2023-01-16T09:44:32;2.23;;;1.23;;
13238;SDS011;6686;51.292;4.166;2023-01-16T09:47:20;2.60;;;1.20;;
13238;SDS011;6686;51.292;4.166;2023-01-16T09:50:06;2.90;;;1.37;;
13238;SDS011;6686;51.292;4.166;2023-01-16T09:52:56;4.70;;;2.80;;
13238;SDS011;6686;51.292;4.166;2023-01-16T09:56:01;3.80;;;2.87;;
13238;SDS011;6686;51.292;4.166;2023-01-16T09:59:22;1.40;;;1.30;;
13238;SDS011;6686;51.292;4.166;2023-01-16T10:02:24;2.65;;;1.48;;
13238;SDS011;6686;51.292;4.166;2023-01-16T10:05:10;4.27;;;2.67;;
13238;SDS011;6686;51.292;4.166;2023-01-16T10:07:59;4.23;;;3.27;;
13238;SDS011;6686;51.292;4.166;2023-01-16T10:10:53;2.83;;;2.07;;
13238;SDS011;6686;51.292;4.166;2023-01-16T10:31:41;6.67;;;4.27;;
13238;SDS011;6686;51.292;4.166;2023-01-16T10:35:13;3.57;;;1.70;;
13238;SDS011;6686;51.292;4.166;2023-01-16T10:37:12;4.87;;;2.87;;
13238;SDS011;6686;51.292;4.166;2023-01-16T10:40:07;4.07;;;2.43;;
13238;SDS011;6686;51.292;4.166;2023-01-16T10:42:48;2.73;;;1.70;;
13238;SDS011;6686;51.292;4.166;2023-01-16T10:45:53;4.17;;;2.93;;
13238;SDS011;6686;51.292;4.166;2023-01-16T10:48:48;3.80;;;2.63;;
13238;SDS011;6686;51.292;4.166;2023-01-16T10:51:54;1.87;;;1.60;;
13238;SDS011;6686;51.292;4.166;2023-01-16T10:54:39;2.53;;;1.80;;
13238;SDS011;6686;51.292;4.166;2023-01-16T10:57:24;1.63;;;1.50;;
13238;SDS011;6686;51.292;4.166;2023-01-16T11:00:16;1.97;;;1.33;;
13238;SDS011;6686;51.292;4.166;2023-01-16T11:03:14;1.00;;;1.00;;
13238;SDS011;6686;51.292;4.166;2023-01-16T11:09:14;2.07;;;1.50;;
13238;SDS011;6686;51.292;4.166;2023-01-16T11:12:00;1.90;;;1.60;;
13238;SDS011;6686;51.292;4.166;2023-01-16T11:15:04;4.60;;;3.58;;
13238;SDS011;6686;51.292;4.166;2023-01-16T11:21:15;1.53;;;1.30;;
13238;SDS011;6686;51.292;4.166;2023-01-16T11:24:01;2.17;;;1.90;;
13238;SDS011;6686;51.292;4.166;2023-01-16T11:26:50;1.77;;;1.40;;
13238;SDS011;6686;51.292;4.166;2023-01-16T11:29:36;1.47;;;1.37;;
13238;SDS011;6686;51.292;4.166;2023-01-16T11:32:21;2.47;;;1.60;;
13238;SDS011;6686;51.292;4.166;2023-01-16T11:35:10;2.10;;;1.20;;
13238;SDS011;6686;51.292;4.166;2023-01-16T11:37:52;1.27;;;1.10;;
13238;SDS011;6686;51.292;4.166;2023-01-16T11:40:43;0.90;;;0.90;;
13238;SDS011;6686;51.292;4.166;2023-01-16T11:43:25;0.87;;;0.87;;
13238;SDS011;6686;51.292;4.166;2023-01-16T11:46:40;1.10;;;1.00;;
13238;SDS011;6686;51.292;4.166;2023-01-16T11:49:25;1.40;;;1.20;;
13238;SDS011;6686;51.292;4.166;2023-01-16T11:52:21;1.40;;;1.30;;
13238;SDS011;6686;51.292;4.166;2023-01-16T11:54:59;1.40;;;1.30;;
13238;SDS011;6686;51.292;4.166;2023-01-16T11:57:48;1.33;;;1.23;;
13238;SDS011;6686;51.292;4.166;2023-01-16T12:00:36;1.63;;;1.50;;
13238;SDS011;6686;51.292;4.166;2023-01-16T12:06:48;2.37;;;1.77;;
13238;SDS011;6686;51.292;4.166;2023-01-16T12:09:56;1.83;;;1.27;;
13238;SDS011;6686;51.292;4.166;2023-01-16T12:12:40;1.37;;;1.27;;
13238;SDS011;6686;51.292;4.166;2023-01-16T12:15:50;1.30;;;1.13;;
13238;SDS011;6686;51.292;4.166;2023-01-16T12:31:32;1.00;;;1.00;;
13238;SDS011;6686;51.292;4.166;2023-01-16T12:34:41;1.33;;;1.20;;
13238;SDS011;6686;51.292;4.166;2023-01-16T12:43:32;2.77;;;2.00;;
13238;SDS011;6686;51.292;4.166;2023-01-16T12:46:18;1.63;;;1.53;;
13238;SDS011;6686;51.292;4.166;2023-01-16T12:49:12;2.85;;;1.83;;
13238;SDS011;6686;51.292;4.166;2023-01-16T12:52:17;3.20;;;2.00;;
13238;SDS011;6686;51.292;4.166;2023-01-16T12:55:07;2.57;;;1.70;;
13238;SDS011;6686;51.292;4.166;2023-01-16T12:57:59;2.40;;;1.70;;
13238;SDS011;6686;51.292;4.166;2023-01-16T13:01:17;2.90;;;2.60;;
13238;SDS011;6686;51.292;4.166;2023-01-16T13:04:05;2.00;;;1.63;;
13238;SDS011;6686;51.292;4.166;2023-01-16T13:06:52;2.47;;;1.60;;
13238;SDS011;6686;51.292;4.166;2023-01-16T13:12:37;1.97;;;1.30;;
13238;SDS011;6686;51.292;4.166;2023-01-16T13:15:43;2.37;;;1.80;;
13238;SDS011;6686;51.292;4.166;2023-01-16T13:21:20;2.77;;;1.80;;
13238;SDS011;6686;51.292;4.166;2023-01-16T13:24:10;2.00;;;1.73;;
13238;SDS011;6686;51.292;4.166;2023-01-16T13:27:02;2.20;;;1.30;;
13238;SDS011;6686;51.292;4.166;2023-01-16T13:29:58;4.10;;;1.80;;
13238;SDS011;6686;51.292;4.166;2023-01-16T13:32:50;4.00;;;2.17;;
13238;SDS011;6686;51.292;4.166;2023-01-16T13:35:35;1.53;;;1.43;;
13238;SDS011;6686;51.292;4.166;2023-01-16T13:38:32;2.00;;;1.60;;
13238;SDS011;6686;51.292;4.166;2023-01-16T13:41:33;2.43;;;1.80;;
13238;SDS011;6686;51.292;4.166;2023-01-16T13:47:20;2.00;;;1.40;;
13238;SDS011;6686;51.292;4.166;2023-01-16T13:52:55;1.50;;;1.30;;
13238;SDS011;6686;51.292;4.166;2023-01-16T13:55:43;3.87;;;1.90;;
13238;SDS011;6686;51.292;4.166;2023-01-16T13:58:29;2.43;;;2.13;;
13238;SDS011;6686;51.292;4.166;2023-01-16T14:07:45;3.20;;;1.90;;
13238;SDS011;6686;51.292;4.166;2023-01-16T14:10:17;4.30;;;2.30;;
13238;SDS011;6686;51.292;4.166;2023-01-16T14:13:12;2.53;;;1.80;;
13238;SDS011;6686;51.292;4.166;2023-01-16T14:19:22;5.20;;;3.30;;
13238;SDS011;6686;51.292;4.166;2023-01-16T14:22:11;3.00;;;2.45;;
13238;SDS011;6686;51.292;4.166;2023-01-16T14:24:54;2.10;;;1.77;;
13238;SDS011;6686;51.292;4.166;2023-01-16T14:27:39;3.07;;;2.60;;
13238;SDS011;6686;51.292;4.166;2023-01-16T14:30:26;18.63;;;12.33;;
13238;SDS011;6686;51.292;4.166;2023-01-16T14:33:11;9.25;;;6.40;;
13238;SDS011;6686;51.292;4.166;2023-01-16T14:35:57;9.50;;;5.23;;
13238;SDS011;6686;51.292;4.166;2023-01-16T14:38:44;5.50;;;4.63;;
13238;SDS011;6686;51.292;4.166;2023-01-16T14:41:29;5.00;;;3.83;;
13238;SDS011;6686;51.292;4.166;2023-01-16T14:44:33;3.47;;;2.30;;
13238;SDS011;6686;51.292;4.166;2023-01-16T14:47:44;14.37;;;9.07;;
13238;SDS011;6686;51.292;4.166;2023-01-16T14:50:51;14.77;;;9.47;;
13238;SDS011;6686;51.292;4.166;2023-01-16T14:54:00;8.53;;;7.00;;
13238;SDS011;6686;51.292;4.166;2023-01-16T14:57:08;6.80;;;4.53;;
13238;SDS011;6686;51.292;4.166;2023-01-16T15:00:06;6.07;;;5.47;;
13238;SDS011;6686;51.292;4.166;2023-01-16T15:02:51;4.80;;;4.17;;
13238;SDS011;6686;51.292;4.166;2023-01-16T15:05:57;2.60;;;2.40;;
13238;SDS011;6686;51.292;4.166;2023-01-16T15:08:43;1.77;;;1.53;;
13238;SDS011;6686;51.292;4.166;2023-01-16T15:11:29;1.73;;;1.57;;
13238;SDS011;6686;51.292;4.166;2023-01-16T15:14:22;1.90;;;1.63;;
13238;SDS011;6686;51.292;4.166;2023-01-16T15:17:28;1.13;;;1.10;;
13238;SDS011;6686;51.292;4.166;2023-01-16T15:20:35;1.57;;;1.47;;
13238;SDS011;6686;51.292;4.166;2023-01-16T15:23:40;1.30;;;1.20;;
13238;SDS011;6686;51.292;4.166;2023-01-16T15:29:18;4.43;;;3.07;;
13238;SDS011;6686;51.292;4.166;2023-01-16T15:32:10;5.33;;;1.60;;
13238;SDS011;6686;51.292;4.166;2023-01-16T15:35:09;2.10;;;1.70;;
13238;SDS011;6686;51.292;4.166;2023-01-16T15:37:56;1.57;;;1.20;;
13238;SDS011;6686;51.292;4.166;2023-01-16T15:40:52;2.57;;;1.80;;
13238;SDS011;6686;51.292;4.166;2023-01-16T15:43:37;3.28;;;2.35;;
13238;SDS011;6686;51.292;4.166;2023-01-16T15:49:30;2.60;;;1.90;;
13238;SDS011;6686;51.292;4.166;2023-01-16T15:52:26;6.53;;;4.20;;
13238;SDS011;6686;51.292;4.166;2023-01-16T15:55:17;5.90;;;2.57;;
13238;SDS011;6686;51.292;4.166;2023-01-16T15:58:01;3.27;;;2.00;;
13238;SDS011;6686;51.292;4.166;2023-01-16T16:01:01;4.87;;;1.13;;
13238;SDS011;6686;51.292;4.166;2023-01-16T16:03:43;2.97;;;1.03;;
13238;SDS011;6686;51.292;4.166;2023-01-16T16:06:28;2.47;;;1.85;;
13238;SDS011;6686;51.292;4.166;2023-01-16T16:09:17;2.43;;;1.33;;
13238;SDS011;6686;51.292;4.166;2023-01-16T16:12:03;5.13;;;2.40;;
13238;SDS011;6686;51.292;4.166;2023-01-16T16:15:09;6.93;;;3.97;;
13238;SDS011;6686;51.292;4.166;2023-01-16T16:18:13;3.97;;;2.07;;
13238;SDS011;6686;51.292;4.166;2023-01-16T16:21:03;3.80;;;2.63;;
13238;SDS011;6686;51.292;4.166;2023-01-16T16:23:44;2.20;;;1.55;;
13238;SDS011;6686;51.292;4.166;2023-01-16T16:26:30;7.30;;;3.23;;
13238;SDS011;6686;51.292;4.166;2023-01-16T16:29:19;3.33;;;1.47;;
13238;SDS011;6686;51.292;4.166;2023-01-16T16:32:05;2.23;;;1.00;;
13238;SDS011;6686;51.292;4.166;2023-01-16T16:34:51;4.10;;;1.47;;
13238;SDS011;6686;51.292;4.166;2023-01-16T16:37:40;2.43;;;1.13;;
13238;SDS011;6686;51.292;4.166;2023-01-16T16:40:26;1.23;;;0.93;;
13238;SDS011;6686;51.292;4.166;2023-01-16T16:43:11;2.50;;;1.00;;
13238;SDS011;6686;51.292;4.166;2023-01-16T16:46:02;4.60;;;1.10;;
13238;SDS011;6686;51.292;4.166;2023-01-16T16:48:43;2.07;;;1.20;;
13238;SDS011;6686;51.292;4.166;2023-01-16T16:51:29;0.60;;;0.60;;
13238;SDS011;6686;51.292;4.166;2023-01-16T16:54:15;1.27;;;1.10;;
13238;SDS011;6686;51.292;4.166;2023-01-16T16:57:01;1.43;;;1.00;;
13238;SDS011;6686;51.292;4.166;2023-01-16T16:59:47;1.90;;;1.67;;
13238;SDS011;6686;51.292;4.166;2023-01-16T17:02:32;7.43;;;3.00;;
13238;SDS011;6686;51.292;4.166;2023-01-16T17:05:18;3.03;;;2.17;;
13238;SDS011;6686;51.292;4.166;2023-01-16T17:08:04;3.83;;;1.87;;
13238;SDS011;6686;51.292;4.166;2023-01-16T17:10:50;4.67;;;3.03;;
13238;SDS011;6686;51.292;4.166;2023-01-16T17:13:36;4.03;;;2.20;;
13238;SDS011;6686;51.292;4.166;2023-01-16T17:16:23;6.25;;;2.20;;
13238;SDS011;6686;51.292;4.166;2023-01-16T17:22:02;3.00;;;1.40;;
13238;SDS011;6686;51.292;4.166;2023-01-16T17:24:48;2.33;;;1.40;;
13238;SDS011;6686;51.292;4.166;2023-01-16T17:27:34;7.93;;;1.57;;
13238;SDS011;6686;51.292;4.166;2023-01-16T17:30:21;1.93;;;1.53;;
13238;SDS011;6686;51.292;4.166;2023-01-16T17:33:09;5.73;;;2.20;;
13238;SDS011;6686;51.292;4.166;2023-01-16T17:35:54;4.63;;;1.67;;
13238;SDS011;6686;51.292;4.166;2023-01-16T17:38:55;5.33;;;2.13;;
13238;SDS011;6686;51.292;4.166;2023-01-16T17:41:41;2.27;;;1.97;;
13238;SDS011;6686;51.292;4.166;2023-01-16T17:44:27;5.43;;;2.00;;
13238;SDS011;6686;51.292;4.166;2023-01-16T17:47:32;6.10;;;3.60;;
13238;SDS011;6686;51.292;4.166;2023-01-16T17:50:18;6.70;;;3.10;;
13238;SDS011;6686;51.292;4.166;2023-01-16T17:53:14;6.03;;;2.37;;
13238;SDS011;6686;51.292;4.166;2023-01-16T17:56:03;3.33;;;1.70;;
13238;SDS011;6686;51.292;4.166;2023-01-16T17:58:48;4.57;;;2.03;;
13238;SDS011;6686;51.292;4.166;2023-01-16T18:01:48;3.17;;;1.83;;
13238;SDS011;6686;51.292;4.166;2023-01-16T18:04:37;5.40;;;1.50;;
13238;SDS011;6686;51.292;4.166;2023-01-16T18:07:23;2.40;;;1.47;;
13238;SDS011;6686;51.292;4.166;2023-01-16T18:10:10;2.43;;;1.70;;
13238;SDS011;6686;51.292;4.166;2023-01-16T18:12:55;4.47;;;1.63;;
13238;SDS011;6686;51.292;4.166;2023-01-16T18:16:02;5.30;;;1.40;;
13238;SDS011;6686;51.292;4.166;2023-01-16T18:18:45;3.77;;;2.17;;
13238;SDS011;6686;51.292;4.166;2023-01-16T18:21:35;2.87;;;1.73;;
13238;SDS011;6686;51.292;4.166;2023-01-16T18:24:41;5.23;;;1.60;;
13238;SDS011;6686;51.292;4.166;2023-01-16T18:27:26;6.30;;;1.80;;
13238;SDS011;6686;51.292;4.166;2023-01-16T18:30:20;3.60;;;1.67;;
13238;SDS011;6686;51.292;4.166;2023-01-16T18:33:04;3.90;;;1.67;;
13238;SDS011;6686;51.292;4.166;2023-01-16T18:36:08;3.03;;;1.50;;
13238;SDS011;6686;51.292;4.166;2023-01-16T18:38:57;5.97;;;1.80;;
13238;SDS011;6686;51.292;4.166;2023-01-16T18:41:43;5.00;;;2.00;;
13238;SDS011;6686;51.292;4.166;2023-01-16T18:44:48;4.13;;;2.20;;
13238;SDS011;6686;51.292;4.166;2023-01-16T18:48:11;4.93;;;1.90;;
13238;SDS011;6686;51.292;4.166;2023-01-16T18:54:38;2.93;;;1.40;;
13238;SDS011;6686;51.292;4.166;2023-01-16T18:57:41;4.53;;;1.70;;
13238;SDS011;6686;51.292;4.166;2023-01-16T19:00:46;4.17;;;2.10;;
13238;SDS011;6686;51.292;4.166;2023-01-16T19:03:50;7.60;;;2.80;;